Marine Hornbill — 3FEF3 — position and weather

sailwx.info

Track history (hours):
 
Tides and Currents Weather Stations Pressure Air Temp Water Temp Dewpoint Dewpoint Depression Visibility Wind Speed Wind Dir Waves Ship Positions

Marine Hornbill

Last reported at 2015-Apr-17 12:32 UTC. Time now 2015-Apr-19 22:54 UTC.
Position N 33°53' E 134°58'.

Length 116 m; draft 5.1 m.

Type: Cargo ship. MMSI: 357869000.

Date/timePositionNaut miles runAvg speedWind from/ knotsBaromVisibWave heightAir tempDewpointWater temp
2015-Apr-17 12:32N 33°53' E 134°58'1211.7
2015-Apr-17 11:33N 34°05' E 134°58'1111.3
2015-Apr-17 10:32N 34°16' E 134°58'1010.1
2015-Apr-17 09:33N 34°25' E 135°03'1211.8
2015-Apr-17 08:33N 34°31' E 135°15'7 5.8
2015-Apr-17 07:24N 34°31' E 135°23'0 0.0
2015-Apr-17 06:24N 34°31' E 135°23'0 0.0
2015-Apr-17 05:30N 34°31' E 135°23'0 0.0
2015-Apr-17 04:30N 34°31' E 135°23'0 0.0
2015-Apr-17 03:24N 34°31' E 135°23'0 0.0
2015-Apr-17 02:30N 34°31' E 135°23'0 0.0
2015-Apr-17 01:30N 34°31' E 135°23'0 0.0
2015-Apr-17 00:30N 34°31' E 135°23'0 0.0
2015-Apr-16 23:30N 34°31' E 135°23'0 0.0
2015-Apr-16 22:30N 34°31' E 135°23'0 0.0
2015-Apr-16 21:30N 34°31' E 135°23'0 0.0
2015-Apr-16 20:30N 34°31' E 135°23'0 0.0
2015-Apr-16 19:30N 34°31' E 135°23'0 0.0
2015-Apr-16 18:30N 34°31' E 135°23'0 0.0
2015-Apr-16 17:30N 34°31' E 135°23'0 0.0
2015-Apr-16 16:30N 34°31' E 135°23'0 0.0
2015-Apr-16 15:30N 34°31' E 135°23'0 0.0
2015-Apr-16 14:30N 34°31' E 135°23'0 0.0
2015-Apr-16 13:30N 34°31' E 135°23'0 0.0
2015-Apr-16 12:24N 34°31' E 135°23'0 0.0
2015-Apr-16 11:30N 34°31' E 135°23'0 0.0
2015-Apr-16 10:30N 34°31' E 135°23'0 0.0
2015-Apr-16 09:24N 34°31' E 135°23'0 0.0
2015-Apr-16 08:30N 34°31' E 135°23'0 0.0
2015-Apr-16 07:30N 34°31' E 135°23'0 0.0
2015-Apr-16 06:24N 34°31' E 135°23'0 0.0
2015-Apr-16 05:24N 34°31' E 135°23'0 0.0
2015-Apr-16 04:12N 34°31' E 135°23'0 0.0
2015-Apr-16 03:30N 34°31' E 135°23'0 0.0
2015-Apr-16 02:24N 34°31' E 135°23'0 0.0
2015-Apr-16 01:30N 34°31' E 135°23'0 0.0
2015-Apr-16 00:30N 34°31' E 135°23'0 0.0
2015-Apr-15 23:24N 34°31' E 135°23'0 0.0
2015-Apr-15 22:33N 34°31' E 135°23'2 2.2
2015-Apr-15 21:33N 34°33' E 135°22'1 1.0
2015-Apr-15 20:29N 34°32' E 135°22'0 0.0
2015-Apr-15 19:23N 34°32' E 135°22'0 0.0
2015-Apr-15 18:17N 34°32' E 135°22'0 0.0
2015-Apr-15 17:05N 34°32' E 135°22'0 0.0
2015-Apr-15 16:29N 34°32' E 135°22'0 0.0
2015-Apr-15 15:29N 34°32' E 135°22'0 0.0
2015-Apr-15 13:17N 34°32' E 135°22'0 0.0
2015-Apr-15 12:29N 34°32' E 135°22'0 0.0
2015-Apr-15 11:29N 34°32' E 135°22'0 0.1
2015-Apr-15 10:33N 34°32' E 135°22'3 3.0
2015-Apr-15 09:33N 34°32' E 135°18'1111.2
2015-Apr-15 08:33N 34°35' E 135°05'9 8.4
2015-Apr-15 07:32N 34°35' E 134°55'1210.9
2015-Apr-15 06:26N 34°31' E 134°41'21910.5
2015-Apr-14 09:33N 33°53' E 130°21'1211.9
2015-Apr-14 08:34N 33°42' E 130°15'9 8.5
2015-Apr-14 07:33N 33°37' E 130°24'1 0.5
2015-Apr-14 06:31N 33°37' E 130°24'0 0.0
2015-Apr-14 05:32N 33°37' E 130°24'0 0.0
2015-Apr-14 04:32N 33°37' E 130°24'0 0.0
2015-Apr-14 03:29N 33°37' E 130°24'0 0.0
2015-Apr-14 02:31N 33°37' E 130°24'0 0.0
2015-Apr-14 01:28N 33°37' E 130°24'1 1.2
2015-Apr-14 00:33N 33°37' E 130°23'6 5.8
2015-Apr-13 23:33N 33°40' E 130°17'9 9.2
2015-Apr-13 22:33N 33°44' E 130°07'1111.4
2015-Apr-13 21:33N 33°41' E 129°53'1813.0
2015-Apr-13 20:08N 33°33' E 129°34'  
Track history (hours):
 
Tides and Currents Weather Stations Pressure Air Temp Water Temp Dewpoint Dewpoint Depression Visibility Wind Speed Wind Dir Waves Ship Positions

Marine Hornbill

Last reported at 2015-Apr-17 12:32 UTC. Time now 2015-Apr-19 22:54 UTC.
Position N 33°53' E 134°58'.

Length 116 m; draft 5.1 m.

Type: Cargo ship. MMSI: 357869000.

Date/timePositionNaut miles runAvg speedWind from/ knotsBaromVisibWave heightAir tempDewpointWater temp
2015-Apr-17 12:32N 33°53' E 134°58'1211.7
2015-Apr-17 11:33N 34°05' E 134°58'1111.3
2015-Apr-17 10:32N 34°16' E 134°58'1010.1
2015-Apr-17 09:33N 34°25' E 135°03'1211.8
2015-Apr-17 08:33N 34°31' E 135°15'7 5.8
2015-Apr-17 07:24N 34°31' E 135°23'0 0.0
2015-Apr-17 06:24N 34°31' E 135°23'0 0.0
2015-Apr-17 05:30N 34°31' E 135°23'0 0.0
2015-Apr-17 04:30N 34°31' E 135°23'0 0.0
2015-Apr-17 03:24N 34°31' E 135°23'0 0.0
2015-Apr-17 02:30N 34°31' E 135°23'0 0.0
2015-Apr-17 01:30N 34°31' E 135°23'0 0.0
2015-Apr-17 00:30N 34°31' E 135°23'0 0.0
2015-Apr-16 23:30N 34°31' E 135°23'0 0.0
2015-Apr-16 22:30N 34°31' E 135°23'0 0.0
2015-Apr-16 21:30N 34°31' E 135°23'0 0.0
2015-Apr-16 20:30N 34°31' E 135°23'0 0.0
2015-Apr-16 19:30N 34°31' E 135°23'0 0.0
2015-Apr-16 18:30N 34°31' E 135°23'0 0.0
2015-Apr-16 17:30N 34°31' E 135°23'0 0.0
2015-Apr-16 16:30N 34°31' E 135°23'0 0.0
2015-Apr-16 15:30N 34°31' E 135°23'0 0.0
2015-Apr-16 14:30N 34°31' E 135°23'0 0.0
2015-Apr-16 13:30N 34°31' E 135°23'0 0.0
2015-Apr-16 12:24N 34°31' E 135°23'0 0.0
2015-Apr-16 11:30N 34°31' E 135°23'0 0.0
2015-Apr-16 10:30N 34°31' E 135°23'0 0.0
2015-Apr-16 09:24N 34°31' E 135°23'0 0.0
2015-Apr-16 08:30N 34°31' E 135°23'0 0.0
2015-Apr-16 07:30N 34°31' E 135°23'0 0.0
2015-Apr-16 06:24N 34°31' E 135°23'0 0.0
2015-Apr-16 05:24N 34°31' E 135°23'0 0.0
2015-Apr-16 04:12N 34°31' E 135°23'0 0.0
2015-Apr-16 03:30N 34°31' E 135°23'0 0.0
2015-Apr-16 02:24N 34°31' E 135°23'0 0.0
2015-Apr-16 01:30N 34°31' E 135°23'0 0.0
2015-Apr-16 00:30N 34°31' E 135°23'0 0.0
2015-Apr-15 23:24N 34°31' E 135°23'0 0.0
2015-Apr-15 22:33N 34°31' E 135°23'2 2.2
2015-Apr-15 21:33N 34°33' E 135°22'1 1.0
2015-Apr-15 20:29N 34°32' E 135°22'0 0.0
2015-Apr-15 19:23N 34°32' E 135°22'0 0.0
2015-Apr-15 18:17N 34°32' E 135°22'0 0.0
2015-Apr-15 17:05N 34°32' E 135°22'0 0.0
2015-Apr-15 16:29N 34°32' E 135°22'0 0.0
2015-Apr-15 15:29N 34°32' E 135°22'0 0.0
2015-Apr-15 13:17N 34°32' E 135°22'0 0.0
2015-Apr-15 12:29N 34°32' E 135°22'0 0.0
2015-Apr-15 11:29N 34°32' E 135°22'0 0.1
2015-Apr-15 10:33N 34°32' E 135°22'3 3.0
2015-Apr-15 09:33N 34°32' E 135°18'1111.2
2015-Apr-15 08:33N 34°35' E 135°05'9 8.4
2015-Apr-15 07:32N 34°35' E 134°55'1210.9
2015-Apr-15 06:26N 34°31' E 134°41'21910.5
2015-Apr-14 09:33N 33°53' E 130°21'1211.9
2015-Apr-14 08:34N 33°42' E 130°15'9 8.5
2015-Apr-14 07:33N 33°37' E 130°24'1 0.5
2015-Apr-14 06:31N 33°37' E 130°24'0 0.0
2015-Apr-14 05:32N 33°37' E 130°24'0 0.0
2015-Apr-14 04:32N 33°37' E 130°24'0 0.0
2015-Apr-14 03:29N 33°37' E 130°24'0 0.0
2015-Apr-14 02:31N 33°37' E 130°24'0 0.0
2015-Apr-14 01:28N 33°37' E 130°24'1 1.2
2015-Apr-14 00:33N 33°37' E 130°23'6 5.8
2015-Apr-13 23:33N 33°40' E 130°17'9 9.2
2015-Apr-13 22:33N 33°44' E 130°07'1111.4
2015-Apr-13 21:33N 33°41' E 129°53'1813.0
2015-Apr-13 20:08N 33°33' E 129°34'  

Dump ship's entire track history